North Las Vegas, Nevada
Current Conditions -  °F | °C
As of 3:58 PM on Saturday 22 Nov 2014 (Local Time) from KLSV Reporting Station
Clear Clear  
Wind Chill: 68°   Ceiling: Unl
Heat Index: 68°   Visibility: 10mi
Dew Point: 31°   Wind: 12mph
Humidity: 25%   Direction: 100°E
Pressure: 29.85"   Gusts: NA
Location:  36.2°N, 115.11°W
Report Text: KLSV 222358Z AUTO 10010KT 10SM CLR 20/M01 A2985 RMK AO2 SLP102 T02001007 10206 20140 55020
Loading
Personal Weather Stations






























Interactive Weather Map New forecast layout! Learn more

10-Day Weather Forecast

Advertisements
Track Severe Weather on mobile